Aviation Digital Data Service (ADDS)

Output produced by METARs form (0429 UTC 22 September 2017)
found at http://www.aviationweather.gov/adds/metars/
 
DIBK 220400Z 20006KT 8000 SCT005 BKN010 23/22 Q1014 NOSIG
TAF DIBK 212300Z 2200/2224 23004KT 9999 SCT013 
     PROB30 2206/2210 BKN013 FEW030CB 
     TEMPO 2215/2218 TS BKN013 FEW030CB
       
DIAP 220400Z 24006KT 9000 FEW012 BKN040 25/24 Q1012 NOSIG
TAF DIAP 212300Z 2200/2306 20005KT 9999 SCT012 
     TEMPO 2206/2210 BKN012 
     TEMPO 2214/2219 BKN012
       
TAF DIYO 212300Z 2200/2224 22004KT 9999 SCT013 
     PROB30 
     TEMPO 2215/2219 TS BKN013 FEW025CB